Time;durP1;ratioP1;P1;durP2;ratioP2;P2;SDS_P1;SDS_P2;PMS_P1;PMS_P2;Temp;Humidity;BMP_temperature;BMP_pressure;BME280_temperature;BME280_humidity;BME280_pressure;Samples;Min_cycle;Max_cycle;Signal;HPM_P1;HPM_P2
2023/09/15 00:00:54;;;;;;;;;;;;;;;22.22;55.91;101350.91;4193758;28;19928;-68
2023/09/15 00:02:56;;;;;;;;;;;;;;;22.21;56.00;101346.53;4193790;28;19939;-67
2023/09/15 00:04:58;;;;;;;;;;;;;;;22.21;56.28;101343.84;4193773;28;19925;-67
2023/09/15 00:06:59;;;;;;;;;;;;;;;22.20;55.99;101343.97;4193521;28;19983;-68
2023/09/15 00:09:06;;;;;;;;;;;;;;;22.19;56.06;101340.44;4193940;28;19924;-67
2023/09/15 00:11:13;;;;;;;;;;;;;;;22.18;56.31;101344.94;4193683;28;19925;-68
2023/09/15 00:13:15;;;;;;;;;;;;;;;22.19;56.10;101353.84;4193731;28;19924;-67
2023/09/15 00:15:17;;;;;;;;;;;;;;;22.18;56.33;101338.72;4193704;28;19932;-67
2023/09/15 00:17:19;;;;;;;;;;;;;;;22.17;56.14;101353.94;4193522;28;20489;-67
2023/09/15 00:19:22;;;;;;;;;;;;;;;22.17;55.95;101343.22;4193520;27;20011;-68
2023/09/15 00:21:23;;;;;;;;;;;;;;;22.17;56.30;101337.00;4193497;28;19924;-67
2023/09/15 00:23:25;;;;;;;;;;;;;;;22.16;56.21;101346.00;4193955;28;19925;-68
2023/09/15 00:25:28;;;;;;;;;;;;;;;22.16;56.27;101346.00;4196278;28;20011;-67
2023/09/15 00:27:30;;;;;;;;;;;;;;;22.15;56.15;101352.34;4196573;28;20019;-68
2023/09/15 00:29:32;;;;;;;;;;;;;;;22.13;56.22;101339.06;4196384;28;20286;-68
2023/09/15 00:31:33;;;;;;;;;;;;;;;22.14;56.29;101345.25;4196413;28;20457;-67
2023/09/15 00:33:35;;;;;;;;;;;;;;;22.13;56.31;101344.44;4196360;28;20350;-68
2023/09/15 00:35:37;;;;;;;;;;;;;;;22.12;56.31;101332.00;4211728;28;20053;-67
2023/09/15 00:37:40;;;;;;;;;;;;;;;22.13;56.41;101331.03;4196223;28;19928;-67
2023/09/15 00:39:42;;;;;;;;;;;;;;;22.11;56.26;101335.63;4196154;28;19924;-67
2023/09/15 00:41:44;;;;;;;;;;;;;;;22.12;56.35;101331.16;4196181;28;20055;-68
2023/09/15 00:43:45;;;;;;;;;;;;;;;22.12;56.23;101334.69;4196089;28;19928;-68
2023/09/15 00:45:47;;;;;;;;;;;;;;;22.11;56.15;101330.28;4196313;28;19925;-68
2023/09/15 00:47:50;;;;;;;;;;;;;;;22.10;56.24;101333.09;4195944;28;19929;-68
2023/09/15 00:49:52;;;;;;;;;;;;;;;22.09;56.00;101334.91;4195817;28;19929;-68
2023/09/15 00:51:56;;;;;;;;;;;;;;;22.09;56.37;101326.88;4196238;28;19925;-68
2023/09/15 00:53:58;;;;;;;;;;;;;;;22.09;56.36;101336.72;4196169;28;19929;-68
2023/09/15 00:56:00;;;;;;;;;;;;;;;22.08;56.31;101333.22;4196035;28;19933;-68
2023/09/15 00:58:03;;;;;;;;;;;;;;;22.09;56.07;101334.03;4196035;28;19925;-68
2023/09/15 01:00:12;;;;;;;;;;;;;;;22.07;56.25;101330.66;4196021;28;19978;-68
2023/09/15 01:02:13;;;;;;;;;;;;;;;22.07;56.37;101327.97;4196187;28;19932;-67
2023/09/15 01:04:16;;;;;;;;;;;;;;;22.05;56.12;101330.75;4195567;28;19925;-68
2023/09/15 01:06:18;;;;;;;;;;;;;;;22.06;56.20;101331.63;4196064;28;20027;-68
2023/09/15 01:08:20;;;;;;;;;;;;;;;22.06;56.02;101331.63;4195861;28;19932;-68
2023/09/15 01:10:22;;;;;;;;;;;;;;;22.05;56.28;101325.38;4178220;28;19925;-68
2023/09/15 01:12:25;;;;;;;;;;;;;;;22.04;56.29;101329.03;4195732;28;19929;-68
2023/09/15 01:14:26;;;;;;;;;;;;;;;22.04;56.10;101320.16;4195844;28;19967;-68
2023/09/15 01:16:48;;;;;;;;;;;;;;;22.02;56.29;101323.78;4195880;28;20313;-68
2023/09/15 01:19:13;;;;;;;;;;;;;;;22.00;56.23;101317.69;4195356;28;20286;-68
2023/09/15 01:21:15;;;;;;;;;;;;;;;22.00;56.11;101322.19;4163750;28;20040;-69
2023/09/15 01:23:26;;;;;;;;;;;;;;;22.01;56.26;101323.91;4162610;28;20381;-69
2023/09/15 01:25:41;;;;;;;;;;;;;;;22.00;56.23;101323.03;4162759;28;19948;-68
2023/09/15 01:28:09;;;;;;;;;;;;;;;21.99;56.19;101320.50;4162680;28;19925;-69
2023/09/15 01:30:11;;;;;;;;;;;;;;;21.98;56.41;101322.31;4160648;28;19958;-69
2023/09/15 01:32:14;;;;;;;;;;;;;;;21.98;56.31;101327.69;4160879;28;19974;-69
2023/09/15 01:34:18;;;;;;;;;;;;;;;21.97;56.42;101328.66;4159847;28;19926;-69
2023/09/15 01:36:20;;;;;;;;;;;;;;;21.97;56.29;101317.06;4159819;28;20322;-69
2023/09/15 01:38:21;;;;;;;;;;;;;;;21.96;56.17;101315.38;4160441;28;19995;-69
2023/09/15 01:40:23;;;;;;;;;;;;;;;21.96;56.09;101320.72;4160602;28;19925;-70
2023/09/15 01:42:25;;;;;;;;;;;;;;;21.96;56.39;101318.06;4160556;28;19935;-69
2023/09/15 01:44:27;;;;;;;;;;;;;;;21.95;56.22;101310.97;4160273;28;20383;-68
2023/09/15 01:46:29;;;;;;;;;;;;;;;21.94;56.10;101304.75;4160612;28;20106;-69
2023/09/15 01:48:31;;;;;;;;;;;;;;;21.94;56.16;101314.63;4160028;28;20056;-69
2023/09/15 01:50:33;;;;;;;;;;;;;;;21.93;56.32;101315.59;4160455;28;19978;-69
2023/09/15 01:52:36;;;;;;;;;;;;;;;21.93;56.25;101316.44;4160581;28;19925;-69
2023/09/15 01:54:38;;;;;;;;;;;;;;;21.93;56.02;101318.28;4160523;28;19935;-69
2023/09/15 01:56:39;;;;;;;;;;;;;;;21.93;56.09;101319.13;4160345;28;20011;-69
2023/09/15 01:58:41;;;;;;;;;;;;;;;21.92;56.16;101311.19;4160366;28;19975;-69
2023/09/15 02:00:43;;;;;;;;;;;;;;;21.91;56.29;101313.03;4143939;28;20012;-69
2023/09/15 02:02:45;;;;;;;;;;;;;;;21.91;56.06;101310.34;4159865;28;20259;-70
2023/09/15 02:04:46;;;;;;;;;;;;;;;21.90;56.34;101307.81;4160035;28;20023;-69
2023/09/15 02:06:48;;;;;;;;;;;;;;;21.90;56.31;101308.66;4160716;28;19960;-69
2023/09/15 02:08:49;;;;;;;;;;;;;;;21.90;56.10;101314.00;4162202;28;19967;-69
2023/09/15 02:10:51;;;;;;;;;;;;;;;21.90;56.17;101316.69;4162047;28;19933;-70
2023/09/15 02:12:52;;;;;;;;;;;;;;;21.89;55.94;101312.28;4162023;28;19932;-69
2023/09/15 02:14:54;;;;;;;;;;;;;;;21.89;55.98;101311.44;4162282;28;20291;-69
2023/09/15 02:16:56;;;;;;;;;;;;;;;21.88;55.94;101309.72;4161667;28;19997;-69
2023/09/15 02:18:57;;;;;;;;;;;;;;;21.88;56.05;101312.41;4162021;28;19925;-69
2023/09/15 02:21:00;;;;;;;;;;;;;;;21.88;56.18;101312.41;4192900;27;20342;-69
2023/09/15 02:23:03;;;;;;;;;;;;;;;21.86;56.14;101307.19;4194789;28;19925;-69
2023/09/15 02:25:05;;;;;;;;;;;;;;;21.86;56.09;101307.19;4194825;28;19972;-69
2023/09/15 02:27:07;;;;;;;;;;;;;;;21.85;56.09;101308.13;4194848;28;20026;-69
2023/09/15 02:29:08;;;;;;;;;;;;;;;21.84;55.94;101307.28;4194688;28;19928;-69
2023/09/15 02:31:10;;;;;;;;;;;;;;;21.84;56.05;101307.28;4209954;28;19983;-69
2023/09/15 02:33:12;;;;;;;;;;;;;;;21.84;55.92;101309.09;4193702;28;19932;-69
2023/09/15 02:35:13;;;;;;;;;;;;;;;21.84;56.15;101306.44;4194477;28;19931;-69
2023/09/15 02:37:15;;;;;;;;;;;;;;;21.82;56.24;101298.50;4210234;28;20408;-69
2023/09/15 02:39:16;;;;;;;;;;;;;;;21.81;56.12;101299.47;4194783;28;19924;-69
2023/09/15 02:41:18;;;;;;;;;;;;;;;21.82;56.13;101301.19;4194549;28;19984;-69
2023/09/15 02:43:20;;;;;;;;;;;;;;;21.81;56.31;101299.47;4194585;28;19964;-68
2023/09/15 02:45:21;;;;;;;;;;;;;;;21.80;55.98;101299.56;4194623;28;19935;-68
2023/09/15 02:47:23;;;;;;;;;;;;;;;21.80;55.88;101294.22;4193805;28;19928;-69
2023/09/15 02:49:25;;;;;;;;;;;;;;;21.78;56.37;101297.00;4194683;28;19931;-70
2023/09/15 02:51:26;;;;;;;;;;;;;;;21.79;56.28;101298.72;4194754;28;20412;-70
2023/09/15 02:53:29;;;;;;;;;;;;;;;21.78;55.99;101294.34;4194446;28;19925;-69
2023/09/15 02:55:30;;;;;;;;;;;;;;;21.78;56.08;101301.53;4194638;28;20004;-69
2023/09/15 02:57:32;;;;;;;;;;;;;;;21.77;56.30;101291.78;4194531;28;19951;-70
2023/09/15 02:59:33;;;;;;;;;;;;;;;21.75;56.04;101283.88;4194291;28;20015;-69
2023/09/15 03:01:36;;;;;;;;;;;;;;;21.74;56.34;101292.88;4194225;28;20362;-69
2023/09/15 03:03:38;;;;;;;;;;;;;;;21.75;56.33;101291.91;4194254;28;19955;-69
2023/09/15 03:05:40;;;;;;;;;;;;;;;21.76;56.30;101290.06;4194373;28;19931;-69
2023/09/15 03:07:42;;;;;;;;;;;;;;;21.75;56.15;101288.34;4194569;28;19928;-70
2023/09/15 03:09:44;;;;;;;;;;;;;;;21.75;56.02;101291.03;4194213;28;19939;-70
2023/09/15 03:11:46;;;;;;;;;;;;;;;21.74;55.96;101287.50;4194490;28;19925;-69
2023/09/15 03:13:48;;;;;;;;;;;;;;;21.74;56.23;101286.63;4194195;28;19924;-69
2023/09/15 03:15:50;;;;;;;;;;;;;;;21.73;56.02;101288.47;4193975;28;19972;-69
2023/09/15 03:17:52;;;;;;;;;;;;;;;21.73;55.85;101290.31;4194210;28;19931;-68
2023/09/15 03:19:54;;;;;;;;;;;;;;;21.71;56.23;101282.38;4194084;28;19934;-69
2023/09/15 03:21:56;;;;;;;;;;;;;;;21.70;56.05;101280.66;4194097;28;19924;-68
2023/09/15 03:23:57;;;;;;;;;;;;;;;21.70;56.18;101286.00;4194057;28;19925;-69
2023/09/15 03:26:00;;;;;;;;;;;;;;;21.69;56.02;101285.16;4194001;28;20334;-69
2023/09/15 03:28:02;;;;;;;;;;;;;;;21.70;56.13;101284.22;4194154;27;20020;-69
2023/09/15 03:30:04;;;;;;;;;;;;;;;21.69;56.22;101281.66;4193673;28;20420;-68
2023/09/15 03:32:06;;;;;;;;;;;;;;;21.70;56.12;101283.34;4194050;28;20328;-69
2023/09/15 03:34:07;;;;;;;;;;;;;;;21.68;56.20;101278.09;4194134;28;19970;-69
2023/09/15 03:36:09;;;;;;;;;;;;;;;21.68;56.00;101278.09;4194310;28;19960;-69
2023/09/15 03:38:10;;;;;;;;;;;;;;;21.68;56.04;101266.56;4209612;28;19967;-69
2023/09/15 03:40:12;;;;;;;;;;;;;;;21.67;56.19;101268.34;4193804;28;20029;-70
2023/09/15 03:42:14;;;;;;;;;;;;;;;21.67;56.23;101268.34;4193787;28;19924;-69
2023/09/15 03:44:15;;;;;;;;;;;;;;;21.66;55.94;101265.81;4193570;28;20395;-70
2023/09/15 03:46:17;;;;;;;;;;;;;;;21.66;55.96;101260.44;4209547;28;20071;-69
2023/09/15 03:48:19;;;;;;;;;;;;;;;21.65;56.10;101261.41;4194072;28;19931;-69
2023/09/15 03:50:21;;;;;;;;;;;;;;;21.65;56.20;101261.41;4193993;28;19938;-70
2023/09/15 03:52:23;;;;;;;;;;;;;;;21.64;56.05;101260.56;4193887;28;19970;-69
2023/09/15 03:54:25;;;;;;;;;;;;;;;21.65;55.85;101261.41;4193969;28;20019;-70
2023/09/15 03:56:27;;;;;;;;;;;;;;;21.64;56.11;101257.03;4193790;28;20281;-69
2023/09/15 03:58:29;;;;;;;;;;;;;;;21.63;56.12;101257.97;4194351;28;19924;-70
2023/09/15 04:00:30;;;;;;;;;;;;;;;21.62;56.20;101262.50;4196871;28;20639;-70
2023/09/15 04:02:32;;;;;;;;;;;;;;;21.61;56.18;101254.59;4196899;28;19981;-70
2023/09/15 04:04:34;;;;;;;;;;;;;;;21.62;55.98;101265.16;4196892;28;19924;-69
2023/09/15 04:06:35;;;;;;;;;;;;;;;21.62;56.12;101250.94;4196702;28;19936;-70
2023/09/15 04:08:37;;;;;;;;;;;;;;;21.62;55.92;101250.94;4196587;28;19938;-69
2023/09/15 04:10:39;;;;;;;;;;;;;;;21.61;56.15;101243.88;4196704;28;19929;-69
2023/09/15 04:12:42;;;;;;;;;;;;;;;21.60;56.11;101245.69;4196120;28;20305;-69
2023/09/15 04:14:43;;;;;;;;;;;;;;;21.61;56.19;101244.72;4196734;28;19931;-69
2023/09/15 04:16:45;;;;;;;;;;;;;;;21.61;56.19;101241.19;4196478;28;19978;-69
2023/09/15 04:18:46;;;;;;;;;;;;;;;21.60;56.08;101244.84;4196471;28;20270;-69
2023/09/15 04:20:49;;;;;;;;;;;;;;;21.60;56.06;101242.16;4196334;27;20011;-69
2023/09/15 04:22:51;;;;;;;;;;;;;;;21.59;56.12;101235.94;4196356;28;19925;-69
2023/09/15 04:24:53;;;;;;;;;;;;;;;21.59;56.02;101237.78;4196577;28;20020;-68
2023/09/15 04:26:54;;;;;;;;;;;;;;;21.59;56.08;101235.09;4196502;28;19924;-69
2023/09/15 04:28:57;;;;;;;;;;;;;;;21.58;56.15;101222.69;4196135;28;19924;-69
2023/09/15 04:30:59;;;;;;;;;;;;;;;21.57;56.00;101229.00;4196607;28;19924;-68
2023/09/15 04:33:01;;;;;;;;;;;;;;;21.57;56.20;101223.66;4196395;28;19943;-69
2023/09/15 04:35:05;;;;;;;;;;;;;;;21.58;56.07;101225.34;4196467;28;19972;-69
2023/09/15 04:37:06;;;;;;;;;;;;;;;21.57;55.98;101220.97;4196302;27;20323;-68
2023/09/15 04:39:09;;;;;;;;;;;;;;;21.57;55.81;101224.50;4196263;28;19957;-69
2023/09/15 04:41:11;;;;;;;;;;;;;;;21.56;55.81;101222.78;4196376;28;20312;-69
2023/09/15 04:43:12;;;;;;;;;;;;;;;21.57;55.83;101231.66;4195826;28;20019;-69
2023/09/15 04:45:14;;;;;;;;;;;;;;;21.55;55.96;101227.25;4196322;28;20305;-69
2023/09/15 04:47:29;;;;;;;;;;;;;;;21.55;55.99;101216.53;4196328;28;19925;-69
2023/09/15 04:49:31;;;;;;;;;;;;;;;21.55;56.06;101223.72;4196187;28;20033;-69
2023/09/15 04:51:32;;;;;;;;;;;;;;;21.55;56.10;101213.03;4196225;28;19956;-69
2023/09/15 04:53:34;;;;;;;;;;;;;;;21.54;56.16;101217.53;4196197;28;19992;-69
2023/09/15 04:55:35;;;;;;;;;;;;;;;21.54;55.91;101212.19;4196256;28;19967;-68
2023/09/15 04:57:37;;;;;;;;;;;;;;;21.54;55.94;101208.63;4195972;28;19924;-68
2023/09/15 04:59:38;;;;;;;;;;;;;;;21.54;55.97;101203.28;4196259;28;19947;-69
2023/09/15 05:01:40;;;;;;;;;;;;;;;21.54;56.02;101214.00;4196174;27;19988;-68
2023/09/15 05:03:44;;;;;;;;;;;;;;;21.53;56.18;101213.16;4196027;28;20035;-69
2023/09/15 05:05:50;;;;;;;;;;;;;;;21.52;56.13;101211.44;4195848;28;20393;-68
2023/09/15 05:07:52;;;;;;;;;;;;;;;21.53;55.98;101210.47;4196133;28;19931;-69
2023/09/15 05:09:53;;;;;;;;;;;;;;;21.52;56.13;101210.59;4195737;28;19928;-68
2023/09/15 05:11:55;;;;;;;;;;;;;;;21.51;55.72;101212.41;4195522;28;19928;-69
2023/09/15 05:13:57;;;;;;;;;;;;;;;21.51;55.73;101212.41;4196004;27;19973;-69
2023/09/15 05:15:59;;;;;;;;;;;;;;;21.51;55.73;101215.06;4195773;28;19931;-68
2023/09/15 05:18:00;;;;;;;;;;;;;;;21.51;56.08;101214.25;4195938;28;19949;-68
2023/09/15 05:20:03;;;;;;;;;;;;;;;21.51;55.75;101222.28;4195810;27;20326;-69
2023/09/15 05:22:04;;;;;;;;;;;;;;;21.51;55.89;101224.94;4195833;28;19943;-69
2023/09/15 05:24:07;;;;;;;;;;;;;;;21.50;55.79;101231.25;4195620;28;19924;-70
2023/09/15 05:26:08;;;;;;;;;;;;;;;21.51;56.07;101227.63;4195436;28;19925;-70
2023/09/15 05:28:10;;;;;;;;;;;;;;;21.50;56.11;101229.41;4195747;28;19924;-68
2023/09/15 05:30:12;;;;;;;;;;;;;;;21.50;55.76;101232.09;4195582;28;20389;-69
2023/09/15 05:32:14;;;;;;;;;;;;;;;21.50;56.06;101233.94;4195512;28;20347;-69
2023/09/15 05:34:16;;;;;;;;;;;;;;;21.49;55.99;101232.22;4195416;28;19929;-69
2023/09/15 05:36:18;;;;;;;;;;;;;;;21.49;56.13;101235.75;4210984;28;19980;-69
2023/09/15 05:38:19;;;;;;;;;;;;;;;21.49;55.95;101227.72;4195427;28;20278;-70
2023/09/15 05:40:21;;;;;;;;;;;;;;;21.49;56.10;101224.19;4195369;28;19956;-70
2023/09/15 05:42:23;;;;;;;;;;;;;;;21.48;55.73;101226.03;4195412;28;19924;-69
2023/09/15 05:44:24;;;;;;;;;;;;;;;21.48;55.78;101234.06;4195344;28;19928;-69
2023/09/15 05:46:26;;;;;;;;;;;;;;;21.47;56.10;101235.03;4195531;27;19925;-69
2023/09/15 05:48:28;;;;;;;;;;;;;;;21.47;55.97;101234.16;4195166;28;19928;-70
2023/09/15 05:50:30;;;;;;;;;;;;;;;21.46;55.97;101225.28;4195374;28;19925;-69
2023/09/15 05:52:31;;;;;;;;;;;;;;;21.46;56.14;101222.59;4195300;28;20346;-68
2023/09/15 05:54:33;;;;;;;;;;;;;;;21.45;55.84;101214.69;4194848;28;20335;-68
2023/09/15 05:56:35;;;;;;;;;;;;;;;21.45;55.93;101218.22;4195068;28;19992;-69
2023/09/15 05:58:38;;;;;;;;;;;;;;;21.45;55.93;101218.22;4195202;28;19924;-68
2023/09/15 06:00:42;;;;;;;;;;;;;;;21.46;56.08;101219.06;4195053;28;20023;-69
2023/09/15 06:02:44;;;;;;;;;;;;;;;21.44;55.93;101219.19;4195024;28;19932;-68
2023/09/15 06:04:48;;;;;;;;;;;;;;;21.45;55.76;101223.56;4195111;28;19925;-69
2023/09/15 06:06:50;;;;;;;;;;;;;;;21.46;55.77;101221.72;4194968;28;20385;-68
2023/09/15 06:08:52;;;;;;;;;;;;;;;21.43;55.86;101220.13;4194794;28;19924;-69
2023/09/15 06:10:53;;;;;;;;;;;;;;;21.43;56.10;101222.81;4195154;28;19929;-70
2023/09/15 06:12:55;;;;;;;;;;;;;;;21.44;56.05;101226.34;4195004;28;19931;-69
2023/09/15 06:14:57;;;;;;;;;;;;;;;21.43;56.01;101222.81;4194945;28;19924;-69
2023/09/15 06:17:00;;;;;;;;;;;;;;;21.43;55.86;101225.50;4194528;28;20381;-69
2023/09/15 06:19:02;;;;;;;;;;;;;;;21.43;55.82;101213.94;4177278;28;19925;-69
2023/09/15 06:21:05;;;;;;;;;;;;;;;21.44;55.91;101229.03;4193809;28;19968;-70
2023/09/15 06:23:07;;;;;;;;;;;;;;;21.44;55.71;101234.38;4210019;28;20331;-69
2023/09/15 06:25:08;;;;;;;;;;;;;;;21.44;55.64;101229.03;4194922;28;19964;-70
2023/09/15 06:27:10;;;;;;;;;;;;;;;21.44;55.86;101229.03;4194725;28;20437;-70
2023/09/15 06:29:12;;;;;;;;;;;;;;;21.44;55.90;101218.34;4194940;28;20007;-68
2023/09/15 06:31:15;;;;;;;;;;;;;;;21.43;55.83;101212.09;4194771;28;19928;-70
2023/09/15 06:33:17;;;;;;;;;;;;;;;21.46;55.95;101235.09;4194809;28;20313;-70
2023/09/15 06:35:19;;;;;;;;;;;;;;;21.45;55.60;101220.03;4194826;28;19924;-70
2023/09/15 06:37:21;;;;;;;;;;;;;;;21.45;55.64;101222.72;4194494;28;19928;-69
2023/09/15 06:39:23;;;;;;;;;;;;;;;21.45;55.90;101220.88;4194342;28;19924;-69
2023/09/15 06:41:25;;;;;;;;;;;;;;;21.45;55.82;101223.56;4194474;28;19924;-70
2023/09/15 06:43:27;;;;;;;;;;;;;;;21.46;55.91;101221.72;4194522;28;20358;-70
2023/09/15 06:45:29;;;;;;;;;;;;;;;21.43;55.83;101214.78;4194455;28;19931;-70
2023/09/15 06:47:31;;;;;;;;;;;;;;;21.45;55.88;101220.03;4194748;28;19925;-70
2023/09/15 06:49:32;;;;;;;;;;;;;;;21.45;55.72;101228.06;4194843;28;20157;-70
2023/09/15 06:51:34;;;;;;;;;;;;;;;21.44;55.84;101218.34;4209971;28;20448;-69
2023/09/15 06:53:35;;;;;;;;;;;;;;;21.43;55.88;101217.47;4194109;28;20011;-70
2023/09/15 06:55:39;;;;;;;;;;;;;;;21.43;55.61;101221.97;4194387;28;19924;-69
2023/09/15 06:57:41;;;;;;;;;;;;;;;21.42;55.66;101226.44;4194565;28;19975;-70
2023/09/15 06:59:43;;;;;;;;;;;;;;;21.45;55.77;101226.25;4194507;28;19924;-70
2023/09/15 07:01:45;;;;;;;;;;;;;;;21.43;55.47;101222.81;4194388;27;19928;-70
2023/09/15 07:03:49;;;;;;;;;;;;;;;21.43;55.77;101222.81;4194255;28;20351;-71
2023/09/15 07:05:51;;;;;;;;;;;;;;;21.43;55.58;101228.16;4194160;28;19956;-70
2023/09/15 07:07:52;;;;;;;;;;;;;;;21.43;55.70;101220.13;4193979;28;19925;-69
2023/09/15 07:09:54;;;;;;;;;;;;;;;21.43;55.72;101220.13;4194112;28;19939;-69
2023/09/15 07:11:55;;;;;;;;;;;;;;;21.44;55.44;101229.88;4194185;28;19924;-70
2023/09/15 07:13:57;;;;;;;;;;;;;;;21.43;55.78;101217.47;4194096;28;20389;-69
2023/09/15 07:15:59;;;;;;;;;;;;;;;21.44;55.48;101219.19;4194183;28;19924;-69
2023/09/15 07:18:00;;;;;;;;;;;;;;;21.43;55.64;101217.47;4194308;28;19944;-70
2023/09/15 07:20:02;;;;;;;;;;;;;;;21.44;55.70;101215.66;4193969;27;19924;-70
2023/09/15 07:22:03;;;;;;;;;;;;;;;21.43;55.47;101217.47;4193687;28;19967;-70
2023/09/15 07:24:05;;;;;;;;;;;;;;;21.44;55.66;101215.66;4194076;28;20328;-70
2023/09/15 07:26:07;;;;;;;;;;;;;;;21.43;55.80;101212.09;4194037;28;19931;-70
2023/09/15 07:28:08;;;;;;;;;;;;;;;21.44;55.64;101216.50;4194231;28;19924;-70
2023/09/15 07:30:10;;;;;;;;;;;;;;;21.46;55.69;101211.91;4194076;28;19977;-70
2023/09/15 07:32:12;;;;;;;;;;;;;;;21.47;55.75;101210.06;4194385;28;20382;-69
2023/09/15 07:34:14;;;;;;;;;;;;;;;21.48;55.26;101209.97;4197236;28;19935;-70
2023/09/15 07:36:16;;;;;;;;;;;;;;;21.49;55.67;101205.47;4196656;28;20250;-70
2023/09/15 07:38:17;;;;;;;;;;;;;;;21.49;55.31;101203.63;4197024;28;20015;-70
2023/09/15 07:40:22;;;;;;;;;;;;;;;21.50;55.54;101202.66;4197017;28;19935;-70
2023/09/15 07:42:25;;;;;;;;;;;;;;;21.52;55.52;101207.91;4196945;28;20408;-70
2023/09/15 07:44:27;;;;;;;;;;;;;;;21.53;55.41;101205.13;4196795;28;19928;-70
2023/09/15 07:46:29;;;;;;;;;;;;;;;21.54;55.14;101198.81;4196857;28;19970;-70
2023/09/15 07:48:31;;;;;;;;;;;;;;;21.55;55.07;101202.31;4196971;28;20012;-69
2023/09/15 07:50:33;;;;;;;;;;;;;;;21.55;55.49;101197.81;4196789;27;19924;-69
2023/09/15 07:52:35;;;;;;;;;;;;;;;21.56;55.40;101198.69;4196748;28;19935;-69
2023/09/15 07:54:37;;;;;;;;;;;;;;;21.58;55.32;101193.25;4196780;27;19924;-70
2023/09/15 07:56:38;;;;;;;;;;;;;;;21.58;55.41;101193.25;4196668;28;19924;-70
2023/09/15 07:58:40;;;;;;;;;;;;;;;21.58;55.21;101180.72;4196801;28;19924;-70
2023/09/15 08:00:42;;;;;;;;;;;;;;;21.59;55.17;101189.59;4212198;28;19970;-69
2023/09/15 08:02:44;;;;;;;;;;;;;;;21.59;55.38;101184.25;4196921;28;19969;-68
2023/09/15 08:04:45;;;;;;;;;;;;;;;21.59;55.37;101178.91;4196285;28;19932;-70
2023/09/15 08:06:49;;;;;;;;;;;;;;;21.61;55.21;101183.16;4196819;27;20281;-70
2023/09/15 08:08:51;;;;;;;;;;;;;;;21.62;55.25;101176.00;4196774;28;19935;-70
2023/09/15 08:10:53;;;;;;;;;;;;;;;21.62;55.20;101178.69;4196829;27;19925;-70
2023/09/15 08:12:54;;;;;;;;;;;;;;;21.64;55.22;101171.38;4196541;28;20399;-70
2023/09/15 08:14:56;;;;;;;;;;;;;;;21.64;55.06;101174.91;4196483;28;19928;-70
2023/09/15 08:16:57;;;;;;;;;;;;;;;21.66;54.98;101182.81;4178373;28;19967;-70
2023/09/15 08:18:59;;;;;;;;;;;;;;;21.65;55.00;101176.63;4196451;28;19932;-60
2023/09/15 08:21:01;;;;;;;;;;;;;;;21.65;55.00;101171.28;4196456;27;20294;-70
2023/09/15 08:23:03;;;;;;;;;;;;;;;21.67;54.84;101169.31;4196346;28;20015;-70
2023/09/15 08:25:05;;;;;;;;;;;;;;;21.69;54.96;101163.88;4178553;28;19937;-70
2023/09/15 08:27:07;;;;;;;;;;;;;;;21.69;54.76;101169.22;4196389;28;19935;-70
2023/09/15 08:29:11;;;;;;;;;;;;;;;21.69;54.98;101171.91;4196315;28;19935;-71
2023/09/15 08:31:13;;;;;;;;;;;;;;;21.70;54.89;101161.06;4196183;28;19932;-70
2023/09/15 08:33:15;;;;;;;;;;;;;;;21.71;54.97;101169.94;4196018;28;19925;-70
2023/09/15 08:35:16;;;;;;;;;;;;;;;21.73;55.02;101172.50;4196179;28;19932;-69
2023/09/15 08:37:18;;;;;;;;;;;;;;;21.72;54.94;101174.31;4196104;28;20378;-70
2023/09/15 08:39:19;;;;;;;;;;;;;;;21.73;54.95;101178.72;4196283;28;20733;-70
2023/09/15 08:41:24;;;;;;;;;;;;;;;21.75;54.84;101182.13;4196500;28;19955;-70
2023/09/15 08:43:26;;;;;;;;;;;;;;;21.75;54.68;101183.94;4196238;28;19959;-70
2023/09/15 08:45:27;;;;;;;;;;;;;;;21.76;54.59;101183.81;4195623;28;19957;-70
2023/09/15 08:47:31;;;;;;;;;;;;;;;21.76;54.69;101189.16;4196159;28;20369;-70
2023/09/15 08:49:34;;;;;;;;;;;;;;;21.77;54.81;101176.66;4178103;28;19929;-70
2023/09/15 08:51:37;;;;;;;;;;;;;;;21.69;54.56;101161.19;4196027;28;20373;-70
2023/09/15 08:53:38;;;;;;;;;;;;;;;21.78;54.77;101178.38;4196104;28;19968;-70
2023/09/15 08:55:40;;;;;;;;;;;;;;;21.78;54.76;101189.91;4196147;28;19925;-70
2023/09/15 08:57:42;;;;;;;;;;;;;;;21.79;54.82;101182.75;4195935;28;19924;-70
2023/09/15 08:59:44;;;;;;;;;;;;;;;21.80;54.77;101190.66;4196130;28;19955;-70
2023/09/15 09:01:46;;;;;;;;;;;;;;;21.79;54.78;101182.75;4196026;28;19931;-70
2023/09/15 09:03:47;;;;;;;;;;;;;;;21.79;54.78;101178.25;4195589;27;19968;-70
2023/09/15 09:05:52;;;;;;;;;;;;;;;21.80;54.88;101179.97;4195720;28;19981;-70
2023/09/15 09:07:55;;;;;;;;;;;;;;;21.72;54.68;101166.28;4195629;28;19951;-70
2023/09/15 09:09:57;;;;;;;;;;;;;;;21.82;54.58;101180.69;4195857;28;19929;-70
2023/09/15 09:11:59;;;;;;;;;;;;;;;21.83;54.77;101181.53;4195773;28;19925;-69
2023/09/15 09:14:00;;;;;;;;;;;;;;;21.83;54.82;101173.50;4195922;28;20300;-70
2023/09/15 09:16:05;;;;;;;;;;;;;;;21.84;54.50;101177.91;4195634;28;19924;-70
2023/09/15 09:18:20;;;;;;;;;;;;;;;21.85;54.52;101174.25;4195438;28;19996;-70
2023/09/15 09:20:22;;;;;;;;;;;;;;;21.85;54.48;101171.56;4195643;28;19939;-70
2023/09/15 09:22:24;;;;;;;;;;;;;;;21.85;54.58;101167.06;4195839;28;19929;-69
2023/09/15 09:24:25;;;;;;;;;;;;;;;21.87;54.54;101161.59;4195780;28;19933;-69
2023/09/15 09:26:30;;;;;;;;;;;;;;;21.86;54.58;101163.41;4195767;28;19935;-70
2023/09/15 09:28:33;;;;;;;;;;;;;;;21.88;54.60;101155.25;4195596;28;19925;-67
2023/09/15 09:30:35;;;;;;;;;;;;;;;21.90;54.42;101160.53;4195638;28;19931;-68
2023/09/15 09:32:37;;;;;;;;;;;;;;;21.92;54.56;101163.91;4195241;28;20000;-67
2023/09/15 09:34:39;;;;;;;;;;;;;;;21.92;54.61;101162.09;4195475;28;20300;-67
2023/09/15 09:36:47;;;;;;;;;;;;;;;21.94;54.40;101160.13;4195628;28;19948;-69
2023/09/15 09:38:50;;;;;;;;;;;;;;;21.95;54.48;101155.66;4195729;28;19932;-71
2023/09/15 09:40:55;;;;;;;;;;;;;;;21.95;54.34;101161.00;4195763;28;19925;-68
2023/09/15 09:42:56;;;;;;;;;;;;;;;21.97;54.29;101157.25;4195396;28;19928;-65
2023/09/15 09:44:58;;;;;;;;;;;;;;;21.98;54.46;101164.31;4195238;28;19931;-67
2023/09/15 09:47:00;;;;;;;;;;;;;;;21.98;54.18;101158.94;4194862;28;19924;-67
2023/09/15 09:49:03;;;;;;;;;;;;;;;22.00;54.38;101158.81;4195516;28;20057;-69
2023/09/15 09:51:06;;;;;;;;;;;;;;;22.01;54.43;101161.38;4195337;28;20027;-67
2023/09/15 09:53:09;;;;;;;;;;;;;;;22.02;54.29;101157.72;4195305;28;19947;-66
2023/09/15 09:55:10;;;;;;;;;;;;;;;22.04;54.22;101156.75;4195258;28;19925;-67
2023/09/15 09:57:13;;;;;;;;;;;;;;;22.04;54.41;101151.41;4194089;28;19931;-67
2023/09/15 09:59:15;;;;;;;;;;;;;;;22.06;54.33;101154.84;4195233;28;19974;-70
2023/09/15 10:01:16;;;;;;;;;;;;;;;22.07;54.25;101153.88;4195145;28;19929;-72
2023/09/15 10:03:18;;;;;;;;;;;;;;;22.07;54.35;101152.03;4195105;28;20308;-70
2023/09/15 10:05:21;;;;;;;;;;;;;;;22.09;54.42;101151.91;4195049;28;20027;-71
2023/09/15 10:07:22;;;;;;;;;;;;;;;22.10;54.24;101146.44;4195316;28;19925;-70
2023/09/15 10:09:24;;;;;;;;;;;;;;;22.12;54.13;101147.16;4195211;28;19928;-71
2023/09/15 10:11:27;;;;;;;;;;;;;;;22.13;54.17;101140.84;4195335;28;20373;-71
2023/09/15 10:13:29;;;;;;;;;;;;;;;22.14;54.15;101142.53;4195186;27;19931;-71
2023/09/15 10:15:30;;;;;;;;;;;;;;;22.15;54.21;101141.56;4194615;28;19928;-67
2023/09/15 10:17:33;;;;;;;;;;;;;;;22.17;54.05;101136.94;4195134;28;19966;-78
2023/09/15 10:19:35;;;;;;;;;;;;;;;22.17;53.95;101134.25;4192320;27;19935;-78
2023/09/15 10:21:37;;;;;;;;;;;;;;;22.18;53.82;101133.28;4178310;28;19924;-74
2023/09/15 10:23:39;;;;;;;;;;;;;;;22.18;54.20;101127.91;4178126;28;19925;-73
2023/09/15 10:25:41;;;;;;;;;;;;;;;22.19;54.16;101126.13;4177865;28;19932;-74
2023/09/15 10:27:44;;;;;;;;;;;;;;;22.20;54.33;101124.28;4177760;28;19986;-75